Latest Weather Observations for Lombadina

IDW60801

Issued at 12:33 pm WST Thursday 30 June 2016 (issued every 30 minutes, with the page automatically refreshed every 10 minutes)

About weather observations | Map of weather stations | Latest weather observations for WA | Other Formats
Station Details ID: 503016 Name: LOMBADINA AIRSTRIP Lat: -16.52 Lon: 122.92 Height: 42.0 m
Data from the previous 72 hours. | See also: Recent months for locations in Western Australia
Date/Time
WST
Temp
°C
App
Temp
°C
Dew
Point
°C
Rel
Hum
%
Delta-T
°C
Wind Press
QNH
hPa
Press
MSL
hPa
Rain since
9am
mm
Dir  Spd
km/h
Gust
km/h
Spd
kts
Gust
kts
30/12:30pm 30.3 30.5 16.7 44 8.5 ESE 11 20 6 11 1014.2 1014.0 0.0
30/12:00pm 29.2 30.8 19.2 54 6.5 ESE 9 17 5 9 1014.7 1014.5 0.0
30/11:30am 28.7 30.3 20.7 62 5.3 E 13 20 7 11 1015.2 1015.0 0.0
30/11:00am 27.7 30.0 21.3 68 4.3 ESE 11 22 6 12 1015.5 1015.3 0.0
30/10:30am 27.0 28.8 21.1 70 3.9 ESE 13 22 7 12 1016.2 1016.0 0.0
30/10:00am 27.0 29.3 22.0 74 3.4 ESE 13 20 7 11 1016.4 1016.2 0.0
30/09:30am 27.0 29.7 22.8 78 2.9 SE 13 22 7 12 1016.6 1016.4 0.0
30/09:00am 26.5 29.3 22.3 78 2.8 SE 11 22 6 12 1016.8 1016.6 0.0
30/08:30am 25.7 28.3 22.0 80 2.5 SE 11 17 6 9 1016.6 1016.4 0.0
30/08:00am 24.9 27.7 21.6 82 2.2 SE 9 17 5 9 1016.5 1016.3 0.0
30/07:30am 24.0 26.9 21.1 84 1.9 SE 7 11 4 6 1016.4 1016.2 0.0
30/07:00am 22.9 25.8 20.6 87 1.5 ESE 6 9 3 5 1016.1 1015.9 0.0
30/06:30am 21.6 24.1 19.9 90 1.1 ESE 6 7 3 4 1015.9 1015.7 0.0
30/06:00am 21.0 23.7 19.5 91 1.0 ESE 4 6 2 3 1015.6 1015.4 0.0
30/05:30am 21.1 23.5 19.6 91 1.0 SE 6 7 3 4 1015.4 1015.2 0.0
30/05:00am 20.8 23.7 19.8 94 0.6 SE 4 6 2 3 1015.4 1015.2 0.0
30/04:30am 21.0 23.5 19.8 93 0.8 SSE 6 7 3 4 1015.1 1014.9 0.0
30/04:00am 21.0 23.8 19.7 92 0.8 SE 4 7 2 4 1015.2 1015.0 0.0
30/03:30am 21.4 24.3 19.9 91 1.0 SE 4 7 2 4 1015.3 1015.1 0.0
30/03:00am 21.6 24.2 20.1 91 1.0 SE 6 7 3 4 1015.4 1015.2 0.0
30/02:30am 22.1 25.1 21.3 95 0.5 SE 7 11 4 6 1015.4 1015.2 0.0
30/02:00am 20.9 24.2 19.9 94 0.6 SSE 2 4 1 2 1015.5 1015.3 0.0
30/01:30am 21.1 24.0 19.9 93 0.8 S 4 7 2 4 1015.8 1015.6 0.0
30/01:00am 20.7 23.4 19.4 92 0.8 S 4 7 2 4 1016.2 1016.0 0.0
30/12:30am 21.3 25.0 19.9 92 0.9 CALM 0 4 0 2 1016.5 1016.3 0.0
30/12:00am 21.2 24.3 19.5 90 1.1 SW 2 6 1 3 1016.7 1016.5 0.0
 
Date/Time
WST
Temp
°C
App
Temp
°C
Dew
Point
°C
Rel
Hum
%
Delta-T
°C
Wind Press
QNH
hPa
Press
MSL
hPa
Rain since
9am
mm
Dir  Spd
km/h
Gust
km/h
Spd
kts
Gust
kts
29/11:30pm 21.7 24.9 18.9 84 1.8 CALM 0 4 0 2 1016.8 1016.6 0.0
29/11:00pm 21.8 24.6 18.8 83 1.9 W 2 4 1 2 1016.9 1016.7 0.0
29/10:30pm 21.9 24.5 18.5 81 2.1 SW 2 4 1 2 1017.0 1016.8 0.0
29/10:00pm 21.6 24.0 18.0 80 2.2 WNW 2 4 1 2 1016.9 1016.7 0.0
29/09:30pm 21.9 24.3 17.9 78 2.5 WNW 2 4 1 2 1016.9 1016.7 0.0
29/09:00pm 22.7 24.9 17.4 72 3.3 NW 2 6 1 3 1016.8 1016.6 0.0
29/08:30pm 25.2 27.4 18.4 66 4.3 N 4 7 2 4 1016.7 1016.5 0.0
29/08:00pm 25.5 27.1 18.2 64 4.6 N 7 11 4 6 1016.7 1016.5 0.0
29/07:30pm 25.3 26.4 18.0 64 4.6 NNE 9 11 5 6 1016.6 1016.4 0.0
29/07:00pm 25.0 27.3 17.7 64 4.6 NE 2 4 1 2 1016.2 1016.0 0.0
29/06:30pm 26.3 28.2 17.6 58 5.5 NE 4 9 2 5 1016.0 1015.8 0.0
29/06:00pm 26.3 27.5 16.8 56 5.9 NE 6 9 3 5 1015.7 1015.5 0.0
29/05:30pm 27.6 28.7 16.6 51 6.8 NE 6 9 3 5 1015.6 1015.4 0.0
29/05:00pm 28.6 29.3 16.2 47 7.7 ENE 7 11 4 6 1015.2 1015.0 0.0
29/04:30pm 29.3 29.6 16.1 44 8.2 ENE 9 15 5 8 1014.9 1014.7 0.0
29/04:00pm 29.6 29.4 15.7 43 8.6 NE 11 19 6 10 1014.5 1014.3 0.0
29/03:30pm 30.0 29.4 15.7 42 8.9 ENE 13 22 7 12 1014.3 1014.1 0.0
29/03:00pm 30.0 29.8 15.7 42 8.8 ENE 11 20 6 11 1014.0 1013.8 0.0
29/02:30pm 30.4 30.5 16.4 43 8.8 ENE 11 22 6 12 1013.8 1013.6 0.0
29/02:00pm 30.5 30.2 16.5 43 8.8 E 13 20 7 11 1014.0 1013.8 0.0
29/01:30pm 30.6 30.8 17.7 46 8.2 E 13 20 7 11 1014.1 1013.9 0.0
29/01:00pm 30.1 31.0 18.5 49 7.5 E 11 20 6 11 1014.4 1014.2 0.0
29/12:30pm 29.8 30.7 19.2 53 6.9 E 13 20 7 11 1014.6 1014.4 0.0
29/12:00pm 29.7 30.7 20.3 57 6.2 ENE 15 20 8 11 1015.0 1014.8 0.0
29/11:30am 29.5 31.2 20.9 60 5.7 E 13 20 7 11 1015.3 1015.1 0.0
29/11:00am 29.2 30.0 19.8 57 6.2 E 15 24 8 13 1015.8 1015.6 0.0
29/10:30am 29.3 31.0 20.2 58 6.0 ESE 11 20 6 11 1015.8 1015.6 0.0
29/10:00am 29.0 30.3 19.3 55 6.3 E 11 20 6 11 1016.2 1016.0 0.0
29/09:30am 28.9 29.7 18.1 52 6.9 ESE 11 17 6 9 1016.1 1015.9 0.0
29/09:00am 28.3 29.2 17.5 52 6.8 ESE 9 17 5 9 1016.1 1015.9 0.0
29/08:30am 27.8 29.2 17.3 52 6.6 ESE 6 11 3 6 1016.1 1015.9 0.0
29/08:00am 26.1 27.8 18.0 61 5.1 ESE 6 7 3 4 1016.1 1015.9 0.0
29/07:30am 24.6 26.2 17.8 66 4.3 SE 6 7 3 4 1015.9 1015.7 0.0
29/07:00am 23.2 24.7 17.7 71 3.4 SE 6 9 3 5 1015.6 1015.4 0.0
29/06:30am 22.0 23.5 17.6 76 2.7 SE 6 7 3 4 1015.4 1015.2 0.0
29/06:00am 21.7 23.1 17.3 76 2.7 SE 6 9 3 5 1015.3 1015.1 0.0
29/05:30am 21.9 23.7 17.5 76 2.7 SE 4 7 2 4 1015.1 1014.9 0.0
29/05:00am 22.4 24.0 17.8 75 2.9 SE 6 9 3 5 1014.9 1014.7 0.0
29/04:30am 22.6 24.2 17.9 75 2.9 SE 6 11 3 6 1014.9 1014.7 0.0
29/04:00am 22.8 24.7 18.6 77 2.6 SE 6 13 3 7 1014.8 1014.6 0.0
29/03:30am 23.1 24.9 18.2 74 3.1 SE 6 11 3 6 1014.7 1014.5 0.0
29/03:00am 22.1 23.9 18.3 79 2.4 ESE 6 9 3 5 1014.9 1014.7 0.0
29/02:30am 21.5 24.1 17.5 78 2.5 CALM 0 2 0 1 1014.8 1014.6 0.0
29/02:00am 21.5 24.2 17.7 79 2.4 CALM 0 0 0 0 1015.0 1014.8 0.0
29/01:30am 21.3 23.7 17.9 81 2.1 S 2 4 1 2 1015.2 1015.0 0.0
29/01:00am 21.5 23.7 17.5 78 2.5 S 2 4 1 2 1015.5 1015.3 0.0
29/12:30am 21.0 23.6 17.4 80 2.2 CALM 0 2 0 1 1015.6 1015.4 0.0
29/12:00am 22.2 24.5 17.6 75 2.8 NNE 2 4 1 2 1015.5 1015.3 0.0
 
Date/Time
WST
Temp
°C
App
Temp
°C
Dew
Point
°C
Rel
Hum
%
Delta-T
°C
Wind Press
QNH
hPa
Press
MSL
hPa
Rain since
9am
mm
Dir  Spd
km/h
Gust
km/h
Spd
kts
Gust
kts
28/11:30pm 22.4 25.1 17.8 75 2.9 CALM 0 0 0 0 1015.5 1015.3 0.0
28/11:00pm 22.6 24.7 17.3 72 3.3 N 2 4 1 2 1015.5 1015.3 0.0
28/10:30pm 22.7 24.5 17.4 72 3.3 N 4 6 2 3 1015.7 1015.5 0.0
28/10:00pm 22.7 24.9 17.4 72 3.3 N 2 6 1 3 1015.9 1015.7 0.0
28/09:30pm 22.8 25.3 18.1 75 2.9 NNE 2 4 1 2 1016.0 1015.8 0.0
28/09:00pm 22.7 25.3 18.3 76 2.8 NNE 2 4 1 2 1016.0 1015.8 0.0
28/08:30pm 22.9 25.7 18.0 74 3.1 CALM 0 0 0 0 1016.1 1015.9 0.0
28/08:00pm 23.0 25.7 17.7 72 3.3 CALM 0 0 0 0 1015.8 1015.6 0.0
28/07:30pm 23.7 26.6 18.1 71 3.5 CALM 0 0 0 0 1015.7 1015.5 0.0
28/07:00pm 23.6 26.2 17.6 69 3.7 CALM 0 0 0 0 1015.2 1015.0 0.0
28/06:30pm 24.5 27.1 17.5 65 4.4 CALM 0 2 0 1 1014.9 1014.7 0.0
28/06:00pm 25.7 27.8 17.1 59 5.4 ESE 2 4 1 2 1014.6 1014.4 0.0
28/05:30pm 27.8 29.7 16.7 50 6.9 E 2 4 1 2 1014.2 1014.0 0.0
28/05:00pm 29.6 30.3 16.1 44 8.4 NE 7 11 4 6 1013.7 1013.5 0.0
28/04:30pm 30.2 31.3 16.6 44 8.5 E 6 11 3 6 1013.4 1013.2 0.0
28/04:00pm 30.7 30.8 15.5 39 9.4 E 9 15 5 8 1013.2 1013.0 0.0
28/03:30pm 30.6 31.3 17.0 44 8.6 E 9 17 5 9 1013.0 1012.8 0.0
28/03:00pm 31.3 31.9 16.9 42 9.1 ESE 9 19 5 10 1013.0 1012.8 0.0
28/02:30pm 30.8 30.9 15.6 39 9.4 E 9 17 5 9 1012.9 1012.7 0.0
28/02:00pm 30.6 30.3 15.5 40 9.3 ESE 11 20 6 11 1012.9 1012.7 0.0
28/01:30pm 31.1 30.1 14.7 37 10.0 E 13 24 7 13 1013.1 1012.9 0.0
28/01:00pm 30.8 29.5 14.8 37 9.8 E 15 22 8 12 1013.2 1013.0 0.0
28/12:30pm 31.1 30.1 14.7 37 10.0 E 13 20 7 11 1013.5 1013.3 0.0
28/12:00pm 30.6 30.0 16.6 43 8.8 ENE 15 24 8 13 1013.8 1013.6 0.0
28/11:30am 30.0 30.5 17.5 47 7.9 ENE 11 17 6 9 1014.3 1014.1 0.0
28/11:00am 29.2 30.1 18.3 51 7.0 E 11 17 6 9 1014.7 1014.5 0.0
28/10:30am 28.5 29.4 18.3 54 6.5 E 11 19 6 10 1015.1 1014.9 0.0
28/10:00am 27.4 28.0 17.8 55 6.1 ESE 11 17 6 9 1015.4 1015.2 0.0
28/09:30am 26.8 27.1 17.0 55 6.1 ESE 11 20 6 11 1015.6 1015.4 0.0
28/09:00am 26.0 25.8 16.8 57 5.7 ESE 13 22 7 12 1015.5 1015.3 0.0
28/08:30am 25.1 25.0 16.0 57 5.6 ESE 11 22 6 12 1015.5 1015.3 0.0
28/08:00am 24.0 24.2 15.8 60 5.0 SE 9 17 5 9 1015.1 1014.9 0.0
28/07:30am 22.5 22.3 14.6 61 4.7 SE 9 17 5 9 1014.7 1014.5 0.0
28/07:00am 21.7 21.5 14.6 64 4.2 SE 9 19 5 10 1014.3 1014.1 0.0
28/06:30am 21.1 20.7 14.0 64 4.1 SE 9 13 5 7 1013.9 1013.7 0.0
28/06:00am 20.9 20.6 13.4 62 4.3 SE 7 13 4 7 1013.6 1013.4 0.0
28/05:30am 21.2 21.1 13.9 63 4.2 SE 7 15 4 8 1013.3 1013.1 0.0
28/05:00am 21.5 21.5 15.1 67 3.8 SE 9 13 5 7 1013.1 1012.9 0.0
28/04:30am 21.7 21.9 14.6 64 4.2 SE 7 15 4 8 1013.0 1012.8 0.0
28/04:00am 22.0 21.6 14.1 61 4.6 SE 9 15 5 8 1012.7 1012.5 0.0
28/03:30am 22.1 22.0 14.0 60 4.7 SE 7 13 4 7 1012.7 1012.5 0.0
28/03:00am 22.2 21.4 13.0 56 5.3 SE 9 13 5 7 1012.7 1012.5 0.0
28/02:30am 22.5 21.6 12.7 54 5.6 SE 9 15 5 8 1012.7 1012.5 0.0
28/02:00am 22.7 21.9 12.9 54 5.6 SE 9 15 5 8 1012.8 1012.6 0.0
28/01:30am 22.8 21.9 12.7 53 5.8 SE 9 15 5 8 1013.0 1012.8 0.0
28/01:00am 23.2 22.5 13.1 53 5.8 SE 9 17 5 9 1013.3 1013.1 0.0
28/12:30am 23.2 23.0 13.7 55 5.5 SE 7 15 4 8 1013.4 1013.2 0.0
28/12:00am 23.2 23.0 13.7 55 5.5 SE 7 13 4 7 1013.6 1013.4 0.0
 
Date/Time
WST
Temp
°C
App
Temp
°C
Dew
Point
°C
Rel
Hum
%
Delta-T
°C
Wind Press
QNH
hPa
Press
MSL
hPa
Rain since
9am
mm
Dir  Spd
km/h
Gust
km/h
Spd
kts
Gust
kts
27/11:30pm 23.7 23.5 13.6 53 5.9 SE 7 17 4 9 1013.8 1013.6 0.0
27/11:00pm 24.0 23.9 13.8 53 6.0 SE 7 15 4 8 1014.0 1013.8 0.0
27/10:30pm 24.0 23.8 13.5 52 6.1 SE 7 11 4 6 1014.2 1014.0 0.0
27/10:00pm 24.3 23.9 12.9 49 6.6 SE 7 13 4 7 1014.4 1014.2 0.0
27/09:30pm 24.0 23.4 12.3 48 6.7 SE 7 11 4 6 1014.4 1014.2 0.0
27/09:00pm 24.8 24.1 11.4 43 7.6 SE 6 11 3 6 1014.1 1013.9 0.0
27/08:30pm 25.5 24.8 11.3 41 8.0 SSE 6 11 3 6 1014.0 1013.8 0.0
27/08:00pm 25.2 24.5 12.1 44 7.5 SE 7 11 4 6 1013.8 1013.6 0.0
27/07:30pm 25.0 24.7 12.6 46 7.2 SE 6 11 3 6 1013.6 1013.4 0.0
27/07:00pm 24.4 24.4 13.6 51 6.3 SE 6 9 3 5 1013.4 1013.2 0.0
27/06:30pm 24.9 24.9 13.5 49 6.7 SE 6 9 3 5 1013.2 1013.0 0.0
27/06:00pm 25.8 25.7 13.3 46 7.3 SE 6 11 3 6 1012.8 1012.6 0.0
27/05:30pm 26.4 25.9 12.8 43 7.9 ESE 7 15 4 8 1012.5 1012.3 0.0
27/05:00pm 27.0 26.0 12.3 40 8.5 SE 9 20 5 11 1012.0 1011.8 0.0
27/04:30pm 27.3 25.1 12.1 39 8.8 SE 15 28 8 15 1011.8 1011.6 0.0
27/04:00pm 27.6 25.8 12.0 38 9.0 SE 13 26 7 14 1011.6 1011.4 0.0
27/03:30pm 27.4 25.1 11.8 38 9.0 SE 15 30 8 16 1011.5 1011.3 0.0
27/03:00pm 27.2 25.0 12.0 38 8.8 SE 15 26 8 14 1011.3 1011.1 0.0
27/02:30pm 27.5 25.6 13.1 41 8.5 SE 15 26 8 14 1011.4 1011.2 0.0
27/02:00pm 27.1 25.5 12.7 41 8.4 SE 13 24 7 13 1011.6 1011.4 0.0
27/01:30pm 26.9 25.0 12.9 42 8.2 SE 15 26 8 14 1011.8 1011.6 0.0
27/01:00pm 26.3 24.0 13.1 44 7.7 SE 17 26 9 14 1012.1 1011.9 0.0

Other Formats:

Comma delimited format used in spreadsheet applications
http://www.bom.gov.au/fwo/IDW60801/IDW60801.99206.axf

JavaScript Object Notation format (JSON) in row-major order
http://www.bom.gov.au/fwo/IDW60801/IDW60801.99206.json